KNFL/NFL METAR and TAF weather

Enter ICAO airport designator
Station Type Date Time Source
KNFL METAR 2020/07/10 16:56 UTC NOAA

KNFL 101656Z 35006KT 10SM SCT220 27/03 A3018 RMK AO2 SLP185 T02720028


Station Type Date Time Source
KNFL Decoded METAR 2020/07/10 16:56 UTC NOAA

FALLON NAVAL AIR STATION, NV, United States (KNFL) 39-26N 118-41W 1199M
Jul 10, 2020 - 12:56 PM EDT / 2020.07.10 1656 UTC
Wind: from the N (350 degrees) at 7 MPH (6 KT):0
Visibility: 10 mile(s):0
Sky conditions: partly cloudy
Temperature: 81.0 F (27.2 C)
Dew Point: 37.0 F (2.8 C)
Relative Humidity: 20%
Pressure (altimeter): 30.18 in. Hg (1022 hPa)
ob: KNFL 101656Z 35006KT 10SM SCT220 27/03 A3018 RMK AO2 SLP185 T02720028
cycle: 17

Station Type Date Time Source
KNFL TAF 2020/07/10 15:24 UTC NOAA

TAF KNFL 1015/1115 VRB06KT 9999 SCT250 QNH3003INS T37/1023Z T14/1012Z FS30003

Example: see airport list